Terminal Aerodrome Forecast
Issued by NWS

Home | Current Version | Previous Version | Text Only | Print | Product List | Glossary On
Versions: 1 2 3 4 5 6 7 8 9 10 11 12 13 14 15 16 17 18 19
000
FTUS43 KDLH 182300 RRA
TAFHIB
TAF
KHIB 182350Z 1900/1924 13012KT P6SM BKN200
     FM190200 11009KT P6SM BKN150
     FM190700 11009KT 6SM -RA SCT015 OVC050
     FM190900 13005KT 4SM -RA OVC008
     FM191600 16004KT 4SM -DZ BR OVC008
     FM192100 27006KT P6SM SCT012 BKN080=

USA.gov is the U.S. government's official web portal to all federal, state and local government web resources and services.